createdAt,value
2022-10-17T00:00:39.289Z,95745.28
2022-10-17T00:03:08.629Z,95748.69
2022-10-17T00:05:41.331Z,95757.03
2022-10-17T00:08:09.826Z,95760.63
2022-10-17T00:10:38.188Z,95760.06
2022-10-17T00:13:06.851Z,95757.34
2022-10-17T00:15:34.880Z,95761.53
2022-10-17T00:18:03.212Z,95755.69
2022-10-17T00:20:32.967Z,95755.16
2022-10-17T00:23:00.878Z,95762.00
2022-10-17T00:25:28.971Z,95766.78
2022-10-17T00:27:56.913Z,95766.78
2022-10-17T00:30:25.027Z,95758.34
2022-10-17T00:32:52.973Z,95781.00
2022-10-17T00:35:20.913Z,95781.00
2022-10-17T00:37:51.065Z,95775.41
2022-10-17T00:40:19.535Z,95780.81
2022-10-17T00:42:51.298Z,95782.09
2022-10-17T00:45:24.320Z,95782.91
2022-10-17T00:47:57.184Z,95778.69
2022-10-17T00:50:25.902Z,95783.16
2022-10-17T00:52:59.321Z,95775.72
2022-10-17T00:55:31.667Z,95777.56
2022-10-17T00:58:03.679Z,95777.50
2022-10-17T01:00:32.355Z,95779.09
2022-10-17T01:03:00.577Z,95774.94
2022-10-17T01:05:28.657Z,95777.63
2022-10-17T01:07:58.246Z,95778.75
2022-10-17T01:10:34.212Z,95778.75
2022-10-17T01:13:09.720Z,95778.69
2022-10-17T01:15:50.498Z,95784.34
2022-10-17T01:18:31.589Z,95787.22
2022-10-17T01:21:29.625Z,95794.78
2022-10-17T01:24:50.528Z,95785.94
2022-10-17T01:27:44.433Z,95785.63
2022-10-17T01:30:57.359Z,95787.69
2022-10-17T01:33:47.853Z,95794.00
2022-10-17T01:36:26.194Z,95791.00
2022-10-17T01:39:00.764Z,95795.47
2022-10-17T01:41:38.661Z,95800.41
2022-10-17T01:44:13.618Z,95795.94
2022-10-17T01:46:44.925Z,95801.78
2022-10-17T01:49:18.420Z,95799.16
2022-10-17T01:51:50.613Z,95797.56
2022-10-17T01:54:24.367Z,95799.16
2022-10-17T01:56:58.560Z,95800.75
2022-10-17T01:59:31.037Z,95790.69
2022-10-17T02:02:00.500Z,95784.31
2022-10-17T02:04:30.295Z,95795.41
2022-10-17T02:06:58.523Z,95796.66
2022-10-17T02:09:28.314Z,95796.34
2022-10-17T02:12:12.852Z,95792.44
2022-10-17T02:14:53.387Z,95799.78
2022-10-17T02:17:33.900Z,95802.66
2022-10-17T02:20:11.768Z,95802.16
2022-10-17T02:22:48.669Z,95807.91
2022-10-17T02:25:24.969Z,95809.28
2022-10-17T02:28:02.090Z,95812.13
2022-10-17T02:30:35.580Z,95814.78
2022-10-17T02:33:11.294Z,95803.59
2022-10-17T02:35:47.498Z,95809.31
2022-10-17T02:38:16.070Z,95808.72
2022-10-17T02:40:47.595Z,95812.53
2022-10-17T02:43:16.296Z,95814.56
2022-10-17T02:45:44.298Z,95823.50
2022-10-17T02:48:19.727Z,95834.03
2022-10-17T02:50:59.424Z,95822.81
2022-10-17T02:53:37.761Z,95831.28
2022-10-17T02:56:14.175Z,95816.28
2022-10-17T02:58:47.355Z,95824.28
2022-10-17T03:01:16.901Z,95830.38
2022-10-17T03:03:44.921Z,95823.50
2022-10-17T03:06:14.323Z,95824.97
2022-10-17T03:08:42.265Z,95829.69
2022-10-17T03:11:10.290Z,95822.81
2022-10-17T03:13:39.862Z,95812.06
2022-10-17T03:16:08.584Z,95819.16
2022-10-17T03:18:37.340Z,95820.19
2022-10-17T03:21:05.963Z,95821.22
2022-10-17T03:23:36.163Z,95814.38
2022-10-17T03:26:06.570Z,95817.56
2022-10-17T03:28:36.058Z,95815.00
2022-10-17T03:31:08.541Z,95814.56
2022-10-17T03:33:37.965Z,95811.72
2022-10-17T03:36:09.697Z,95820.28
2022-10-17T03:38:39.783Z,95814.16
2022-10-17T03:41:08.715Z,95821.50
2022-10-17T03:43:38.547Z,95827.44
2022-10-17T03:46:08.146Z,95823.66
2022-10-17T03:48:37.382Z,95822.91
2022-10-17T03:51:08.352Z,95827.84
2022-10-17T03:53:43.512Z,95827.75
2022-10-17T03:56:13.813Z,95828.41
2022-10-17T03:58:43.053Z,95834.78
2022-10-17T04:01:14.092Z,95833.88
2022-10-17T04:03:42.632Z,95839.16
2022-10-17T04:06:12.852Z,95837.56
2022-10-17T04:08:45.288Z,95834.34
2022-10-17T04:11:21.316Z,95832.75
2022-10-17T04:13:55.004Z,95836.75
2022-10-17T04:16:25.689Z,95848.97
2022-10-17T04:19:01.733Z,95850.59
2022-10-17T04:21:36.118Z,95851.78
2022-10-17T04:24:12.627Z,95849.72
2022-10-17T04:26:50.072Z,95845.25
2022-10-17T04:29:18.528Z,95849.72
2022-10-17T04:31:52.307Z,95858.63
2022-10-17T04:34:35.173Z,95858.50
2022-10-17T04:37:03.235Z,95872.22
2022-10-17T04:39:32.697Z,95867.88
2022-10-17T04:42:00.724Z,95874.84
2022-10-17T04:44:30.937Z,95873.69
2022-10-17T04:46:59.953Z,95881.59
2022-10-17T04:49:28.577Z,95882.06
2022-10-17T04:52:01.963Z,95879.91
2022-10-17T04:54:42.892Z,95884.91
2022-10-17T04:57:12.470Z,95880.09
2022-10-17T04:59:42.102Z,95882.16
2022-10-17T05:02:22.184Z,95894.84
2022-10-17T05:04:50.206Z,95884.31
2022-10-17T05:07:18.600Z,95892.22
2022-10-17T05:09:47.883Z,95886.75
2022-10-17T05:12:18.139Z,95886.53
2022-10-17T05:14:47.136Z,95887.53
2022-10-17T05:17:15.617Z,95891.78
2022-10-17T05:19:43.507Z,95892.56
2022-10-17T05:22:11.437Z,95891.41
2022-10-17T05:24:40.572Z,95897.69
2022-10-17T05:27:11.210Z,95908.78
2022-10-17T05:29:39.765Z,95898.97
2022-10-17T05:32:16.287Z,95896.31
2022-10-17T05:34:44.481Z,95897.94
2022-10-17T05:37:12.717Z,95903.75
2022-10-17T05:39:45.845Z,95904.78
2022-10-17T05:42:17.310Z,95898.63
2022-10-17T05:44:46.570Z,95898.97
2022-10-17T05:47:17.227Z,95899.44
2022-10-17T05:49:49.982Z,95900.47
2022-10-17T05:52:24.563Z,95901.47
2022-10-17T05:55:00.836Z,95909.72
2022-10-17T05:57:30.233Z,95910.84
2022-10-17T05:59:59.149Z,95910.94
2022-10-17T06:02:28.364Z,95912.44
2022-10-17T06:04:57.216Z,95907.97
2022-10-17T06:07:25.720Z,95911.19
2022-10-17T06:09:54.281Z,95915.19
2022-10-17T06:12:24.696Z,95919.66
2022-10-17T06:14:54.196Z,95925.34
2022-10-17T06:17:22.344Z,95925.34
2022-10-17T06:19:50.290Z,95935.66
2022-10-17T06:22:18.295Z,95943.31
2022-10-17T06:24:47.751Z,95945.38
2022-10-17T06:27:15.918Z,95940.22
2022-10-17T06:29:43.865Z,95940.69
2022-10-17T06:32:15.113Z,95950.75
2022-10-17T06:34:54.452Z,95958.06
2022-10-17T06:37:22.579Z,95957.59
2022-10-17T06:39:50.690Z,95968.78
2022-10-17T06:42:22.176Z,95967.88
2022-10-17T06:45:03.268Z,95971.06
2022-10-17T06:47:55.468Z,95978.06
2022-10-17T06:50:37.753Z,95982.97
2022-10-17T06:53:12.313Z,95986.44
2022-10-17T06:56:03.038Z,95982.78
2022-10-17T06:58:47.704Z,95988.03
2022-10-17T07:01:32.625Z,95983.44
2022-10-17T07:04:03.161Z,95985.03
2022-10-17T07:06:32.601Z,95994.06
2022-10-17T07:09:07.662Z,95998.91
2022-10-17T07:11:40.259Z,95998.44
2022-10-17T07:14:08.663Z,96010.22
2022-10-17T07:16:37.114Z,96018.22
2022-10-17T07:19:20.648Z,96023.00
2022-10-17T07:21:49.097Z,96019.25
2022-10-17T07:24:17.496Z,96019.59
2022-10-17T07:26:53.528Z,96032.38
2022-10-17T07:29:21.784Z,96025.78
2022-10-17T07:32:04.029Z,96020.72
2022-10-17T07:34:34.545Z,96034.69
2022-10-17T07:37:03.301Z,96033.75
2022-10-17T07:39:31.285Z,96041.75
2022-10-17T07:41:59.973Z,96041.31
2022-10-17T07:44:27.955Z,96049.88
2022-10-17T07:46:55.923Z,96052.88
2022-10-17T07:49:23.927Z,96052.09
2022-10-17T07:51:54.060Z,96060.56
2022-10-17T07:54:22.021Z,96052.75
2022-10-17T07:56:50.761Z,96063.75
2022-10-17T07:59:19.210Z,96061.78
2022-10-17T08:01:47.168Z,96063.59
2022-10-17T08:04:16.843Z,96063.47
2022-10-17T08:06:45.167Z,96068.81
2022-10-17T08:09:14.497Z,96062.50
2022-10-17T08:11:43.992Z,96063.06
2022-10-17T08:14:12.472Z,96061.56
2022-10-17T08:16:40.767Z,96060.66
2022-10-17T08:21:43.638Z,96062.34
2022-10-17T08:24:11.597Z,96064.25
2022-10-17T08:26:43.429Z,96066.97
2022-10-17T08:29:14.727Z,96063.31
2022-10-17T08:31:46.455Z,96070.34
2022-10-17T08:34:16.662Z,96069.31
2022-10-17T08:36:44.587Z,96076.88
2022-10-17T08:39:12.591Z,96069.38
2022-10-17T08:42:03.834Z,96068.91
2022-10-17T08:44:41.801Z,96087.13
2022-10-17T08:47:15.666Z,96089.19
2022-10-17T08:49:51.460Z,96078.84
2022-10-17T08:52:27.432Z,96087.47
2022-10-17T08:54:55.468Z,96080.31
2022-10-17T08:57:24.853Z,96078.97
2022-10-17T08:59:55.352Z,96078.09
2022-10-17T09:02:50.074Z,96072.97
2022-10-17T09:05:28.342Z,96068.31
2022-10-17T09:08:18.555Z,96079.06
2022-10-17T09:10:56.969Z,96060.66
2022-10-17T09:13:38.623Z,96067.06
2022-10-17T09:16:30.036Z,96063.97
2022-10-17T09:19:04.255Z,96052.94
2022-10-17T09:21:43.142Z,96057.16
2022-10-17T09:24:16.242Z,96050.38
2022-10-17T09:26:46.930Z,96054.19
2022-10-17T09:29:24.148Z,96046.31
2022-10-17T09:32:03.970Z,96050.50
2022-10-17T09:34:33.959Z,96045.41
2022-10-17T09:37:03.573Z,96050.38
2022-10-17T09:39:32.133Z,96050.88
2022-10-17T09:42:01.734Z,96052.38
2022-10-17T09:44:34.278Z,96061.28
2022-10-17T09:47:14.094Z,96072.16
2022-10-17T09:49:43.875Z,96065.75
2022-10-17T09:52:16.495Z,96077.63
2022-10-17T09:54:47.854Z,96074.53
2022-10-17T09:57:17.184Z,96077.91
2022-10-17T09:59:48.916Z,96080.09
2022-10-17T10:02:22.759Z,96079.75
2022-10-17T10:05:04.707Z,96084.06
2022-10-17T10:07:35.836Z,96078.03
2022-10-17T10:10:07.152Z,96083.06
2022-10-17T10:12:38.878Z,96080.50
2022-10-17T10:15:37.774Z,96086.41
2022-10-17T10:21:08.532Z,96079.03
2022-10-17T10:23:40.096Z,96091.19
2022-10-17T10:26:21.668Z,96085.41
2022-10-17T10:29:01.928Z,96089.84
2022-10-17T10:31:34.848Z,96083.09
2022-10-17T10:34:14.264Z,96090.56
2022-10-17T10:36:48.613Z,96089.56
2022-10-17T10:39:36.291Z,96093.88
2022-10-17T10:42:07.483Z,96096.88
2022-10-17T10:44:40.781Z,96096.16
2022-10-17T10:47:22.583Z,96095.19
2022-10-17T10:49:53.732Z,96095.25
2022-10-17T10:52:31.403Z,96091.03
2022-10-17T10:55:06.259Z,96089.25
2022-10-17T10:57:37.605Z,96091.13
2022-10-17T11:00:15.673Z,96090.13
2022-10-17T11:02:53.847Z,96087.84
2022-10-17T11:05:37.502Z,96086.03
2022-10-17T11:08:12.957Z,96085.00
2022-10-17T11:10:45.725Z,96085.56
2022-10-17T11:13:19.070Z,96083.50
2022-10-17T11:15:50.387Z,96089.06
2022-10-17T11:18:25.674Z,96088.00
2022-10-17T11:20:58.194Z,96079.78
2022-10-17T11:23:35.492Z,96079.84
2022-10-17T11:26:08.352Z,96078.78
2022-10-17T11:28:36.458Z,96076.91
2022-10-17T11:31:08.105Z,96078.78
2022-10-17T11:33:46.681Z,96081.44
2022-10-17T11:36:17.923Z,96076.19
2022-10-17T11:38:51.914Z,96075.44
2022-10-17T11:41:24.083Z,96071.50
2022-10-17T11:43:55.843Z,96065.13
2022-10-17T11:46:26.151Z,96054.50
2022-10-17T11:49:06.892Z,96062.53
2022-10-17T11:52:01.644Z,96051.50
2022-10-17T11:54:34.782Z,96042.50
2022-10-17T11:57:16.594Z,96041.44
2022-10-17T12:00:01.852Z,96040.41
2022-10-17T12:02:39.890Z,96032.94
2022-10-17T12:05:22.964Z,96030.59
2022-10-17T12:07:57.777Z,96024.50
2022-10-17T12:10:36.305Z,96023.97
2022-10-17T12:13:43.747Z,96012.56
2022-10-17T12:16:43.898Z,96016.84
2022-10-17T12:19:25.679Z,96013.88
2022-10-17T12:22:00.428Z,96022.38
2022-10-17T12:24:35.697Z,96016.03
2022-10-17T12:27:32.753Z,96019.75
2022-10-17T12:30:02.729Z,96019.22
2022-10-17T12:32:47.011Z,96016.59
2022-10-17T12:35:23.330Z,96013.66
2022-10-17T12:38:20.712Z,96001.16
2022-10-17T12:40:56.767Z,95997.97
2022-10-17T12:43:58.489Z,96001.75
2022-10-17T12:46:48.519Z,96000.63
2022-10-17T12:49:42.515Z,95993.25
2022-10-17T12:52:36.782Z,95999.06
2022-10-17T12:55:14.697Z,95991.63
2022-10-17T12:57:50.210Z,95995.31
2022-10-17T13:00:23.227Z,96003.31
2022-10-17T13:02:55.657Z,95994.81
2022-10-17T13:05:29.514Z,96009.69
2022-10-17T13:08:00.612Z,95999.03
2022-10-17T13:10:34.245Z,96006.97
2022-10-17T13:13:10.177Z,96008.00
2022-10-17T13:15:38.838Z,95997.84
2022-10-17T13:18:07.318Z,95996.78
2022-10-17T13:20:35.462Z,95994.59
2022-10-17T13:23:03.859Z,95993.25
2022-10-17T13:25:35.518Z,95989.78
2022-10-17T13:28:14.366Z,95986.59
2022-10-17T13:30:49.653Z,95993.97
2022-10-17T13:33:32.187Z,95997.16
2022-10-17T13:36:01.438Z,95991.78
2022-10-17T13:38:34.890Z,95991.78
2022-10-17T13:41:34.971Z,95985.44
2022-10-17T13:44:04.496Z,95991.31
2022-10-17T13:46:38.373Z,95987.06
2022-10-17T13:49:16.599Z,95995.81
2022-10-17T13:51:46.438Z,96002.31
2022-10-17T13:54:32.932Z,95995.59
2022-10-17T13:57:04.694Z,96006.66
2022-10-17T13:59:40.169Z,96009.22
2022-10-17T14:02:14.589Z,96008.94
2022-10-17T14:05:14.977Z,96001.75
2022-10-17T14:07:58.289Z,95994.84
2022-10-17T14:10:26.664Z,96002.78
2022-10-17T14:12:56.964Z,95997.50
2022-10-17T14:15:28.268Z,96008.13
2022-10-17T14:17:58.632Z,96008.06
2022-10-17T14:23:36.297Z,96013.75
2022-10-17T14:26:23.099Z,96007.94
2022-10-17T14:29:05.676Z,96003.66
2022-10-17T14:31:35.197Z,96014.44
2022-10-17T14:34:04.064Z,96001.19
2022-10-17T14:36:36.986Z,96004.19
2022-10-17T14:39:10.583Z,96016.16
2022-10-17T14:41:45.748Z,96011.97
2022-10-17T14:44:31.798Z,96014.69
2022-10-17T14:47:18.356Z,96029.53
2022-10-17T14:49:52.698Z,96028.59
2022-10-17T14:52:29.710Z,96026.94
2022-10-17T14:54:59.154Z,96027.47
2022-10-17T14:57:30.311Z,96027.22
2022-10-17T15:00:00.113Z,96024.28
2022-10-17T15:02:30.959Z,96036.44
2022-10-17T15:04:59.178Z,96040.72
2022-10-17T15:07:27.216Z,96034.91
2022-10-17T15:09:55.253Z,96038.69
2022-10-17T15:12:25.044Z,96034.00
2022-10-17T15:14:54.147Z,96034.03
2022-10-17T15:17:27.309Z,96043.34
2022-10-17T15:19:55.904Z,96042.78
2022-10-17T15:22:24.581Z,96058.50
2022-10-17T15:24:52.538Z,96048.13
2022-10-17T15:27:22.330Z,96052.09
2022-10-17T15:29:51.585Z,96052.66
2022-10-17T15:32:19.938Z,96057.41
2022-10-17T15:34:49.355Z,96059.25
2022-10-17T15:37:22.031Z,96059.78
2022-10-17T15:39:53.609Z,96066.44
2022-10-17T15:42:23.336Z,96067.00
2022-10-17T15:44:51.312Z,96071.78
2022-10-17T15:47:25.454Z,96083.47
2022-10-17T15:49:55.993Z,96080.28
2022-10-17T15:52:24.764Z,96073.91
2022-10-17T15:54:53.094Z,96087.22
2022-10-17T15:57:23.816Z,96088.28
2022-10-17T15:59:53.125Z,96094.69
2022-10-17T16:02:24.964Z,96095.22
2022-10-17T16:04:54.744Z,96108.78
2022-10-17T16:07:22.855Z,96102.06
2022-10-17T16:09:50.832Z,96102.06
2022-10-17T16:12:24.776Z,96103.63
2022-10-17T16:14:52.714Z,96101.75
2022-10-17T16:17:20.710Z,96112.13
2022-10-17T16:19:48.633Z,96103.09
2022-10-17T16:22:26.125Z,96105.72
2022-10-17T16:24:58.629Z,96107.31
2022-10-17T16:27:26.915Z,96115.25
2022-10-17T16:29:54.872Z,96112.59
2022-10-17T16:32:22.770Z,96110.94
2022-10-17T16:34:50.724Z,96113.06
2022-10-17T16:37:18.652Z,96123.16
2022-10-17T16:39:52.368Z,96122.06
2022-10-17T16:42:20.779Z,96124.63
2022-10-17T16:44:49.323Z,96127.88
2022-10-17T16:47:17.603Z,96133.63
2022-10-17T16:49:45.826Z,96137.31
2022-10-17T16:52:14.358Z,96128.00
2022-10-17T16:54:42.394Z,96130.84
2022-10-17T16:57:11.819Z,96144.38
2022-10-17T16:59:39.899Z,96139.06
2022-10-17T17:02:07.892Z,96141.41
2022-10-17T17:04:35.863Z,96145.56
2022-10-17T17:07:03.869Z,96151.34
2022-10-17T17:09:31.898Z,96145.97
2022-10-17T17:11:59.830Z,96145.91
2022-10-17T17:14:30.238Z,96151.09
2022-10-17T17:16:58.229Z,96157.44
2022-10-17T17:19:26.192Z,96158.97
2022-10-17T17:21:54.101Z,96159.28
2022-10-17T17:24:22.544Z,96160.91
2022-10-17T17:26:53.246Z,96163.28
2022-10-17T17:29:23.499Z,96163.78
2022-10-17T17:31:52.892Z,96172.75
2022-10-17T17:34:20.936Z,96165.28
2022-10-17T17:36:48.836Z,96164.69
2022-10-17T17:39:17.053Z,96158.28
2022-10-17T17:41:45.737Z,96162.59
2022-10-17T17:44:16.762Z,96163.06
2022-10-17T17:46:45.614Z,96163.91
2022-10-17T17:49:15.076Z,96161.97
2022-10-17T17:51:46.345Z,96166.78
2022-10-17T17:54:15.123Z,96174.78
2022-10-17T17:56:43.112Z,96176.38
2022-10-17T17:59:13.873Z,96179.47
2022-10-17T18:01:42.559Z,96171.97
2022-10-17T18:04:10.998Z,96176.78
2022-10-17T18:06:41.053Z,96176.28
2022-10-17T18:09:09.998Z,96180.50
2022-10-17T18:11:38.946Z,96184.16
2022-10-17T18:14:08.486Z,96180.97
2022-10-17T18:16:38.202Z,96177.53
2022-10-17T18:19:08.973Z,96179.88
2022-10-17T18:21:38.155Z,96186.09
2022-10-17T18:24:08.590Z,96186.56
2022-10-17T18:26:37.110Z,96181.13
2022-10-17T18:29:05.664Z,96181.63
2022-10-17T18:31:35.858Z,96182.44
2022-10-17T18:34:05.526Z,96182.69
2022-10-17T18:36:34.963Z,96181.31
2022-10-17T18:39:03.597Z,96175.72
2022-10-17T18:41:33.944Z,96183.41
2022-10-17T18:44:02.955Z,96185.81
2022-10-17T18:46:35.710Z,96181.28
2022-10-17T18:49:04.730Z,96181.75
2022-10-17T18:51:32.718Z,96176.38
2022-10-17T18:54:02.324Z,96182.97
2022-10-17T18:56:32.674Z,96174.00
2022-10-17T18:59:00.677Z,96169.19
2022-10-17T19:01:28.723Z,96171.75
2022-10-17T19:03:58.181Z,96163.28
2022-10-17T19:06:28.171Z,96171.75
2022-10-17T19:08:56.093Z,96182.84
2022-10-17T19:11:25.822Z,96172.75
2022-10-17T19:13:57.061Z,96185.38
2022-10-17T19:16:27.184Z,96181.38
2022-10-17T19:18:57.039Z,96182.69
2022-10-17T19:21:25.726Z,96187.97
2022-10-17T19:23:55.363Z,96188.47
2022-10-17T19:26:24.016Z,96188.97
2022-10-17T19:28:53.838Z,96195.78
2022-10-17T19:31:27.127Z,96193.13
2022-10-17T19:33:56.700Z,96189.44
2022-10-17T19:36:30.413Z,96191.84
2022-10-17T19:39:02.524Z,96196.88
2022-10-17T19:41:30.466Z,96192.66
2022-10-17T19:43:58.472Z,96196.81
2022-10-17T19:46:29.310Z,96201.00
2022-10-17T19:48:57.932Z,96186.09
2022-10-17T19:51:26.418Z,96187.38
2022-10-17T19:53:55.737Z,96192.97
2022-10-17T19:56:25.186Z,96189.03
2022-10-17T19:58:55.353Z,96190.88
2022-10-17T20:01:25.140Z,96184.56
2022-10-17T20:03:55.177Z,96201.00
2022-10-17T20:06:23.595Z,96198.75
2022-10-17T20:08:51.691Z,96198.28
2022-10-17T20:11:21.680Z,96197.97
2022-10-17T20:13:50.199Z,96213.03
2022-10-17T20:16:21.338Z,96212.56
2022-10-17T20:18:50.239Z,96202.84
2022-10-17T20:21:22.357Z,96221.41
2022-10-17T20:23:50.687Z,96219.94
2022-10-17T20:29:11.879Z,96227.38
2022-10-17T20:31:41.456Z,96216.06
2022-10-17T20:34:12.517Z,96205.19
2022-10-17T20:36:42.468Z,96214.72
2022-10-17T20:39:11.890Z,96214.72
2022-10-17T20:41:40.061Z,96224.25
2022-10-17T20:44:08.916Z,96229.53
2022-10-17T20:46:39.824Z,96221.03
2022-10-17T20:49:15.387Z,96231.28
2022-10-17T20:51:44.885Z,96225.22
2022-10-17T20:54:12.933Z,96218.28
2022-10-17T20:56:41.165Z,96222.78
2022-10-17T20:59:13.144Z,96221.53
2022-10-17T21:01:41.198Z,96209.81
2022-10-17T21:04:44.067Z,96222.47
2022-10-17T21:06:59.249Z,96223.03
2022-10-17T21:09:27.617Z,96223.59
2022-10-17T21:11:55.706Z,96227.84
2022-10-17T21:14:25.339Z,96228.41
2022-10-17T21:16:53.592Z,96224.72
2022-10-17T21:19:22.778Z,96233.03
2022-10-17T21:21:51.438Z,96236.06
2022-10-17T21:24:21.006Z,96225.50
2022-10-17T21:26:55.388Z,96229.19
2022-10-17T21:29:24.744Z,96235.59
2022-10-17T21:31:53.027Z,96231.91
2022-10-17T21:34:24.603Z,96235.59
2022-10-17T21:36:53.430Z,96228.16
2022-10-17T21:39:24.247Z,96234.47
2022-10-17T21:41:52.625Z,96232.88
2022-10-17T21:44:24.025Z,96231.84
2022-10-17T21:46:52.791Z,96222.78
2022-10-17T21:49:22.764Z,96242.88
2022-10-17T21:51:51.469Z,96237.13
2022-10-17T21:54:21.033Z,96232.41
2022-10-17T21:56:50.693Z,96237.69
2022-10-17T21:59:18.698Z,96228.72
2022-10-17T22:01:47.346Z,96228.72
2022-10-17T22:04:17.202Z,96234.00
2022-10-17T22:06:47.144Z,96233.47
2022-10-17T22:09:17.348Z,96237.78
2022-10-17T22:11:47.372Z,96231.53
2022-10-17T22:14:21.456Z,96241.16
2022-10-17T22:16:50.374Z,96234.84
2022-10-17T22:19:20.862Z,96233.81
2022-10-17T22:21:48.867Z,96241.53
2022-10-17T22:24:18.568Z,96236.56
2022-10-17T22:26:46.661Z,96226.06
2022-10-17T22:29:16.187Z,96230.78
2022-10-17T22:31:44.191Z,96232.88
2022-10-17T22:34:13.807Z,96226.00
2022-10-17T22:36:42.433Z,96234.47
2022-10-17T22:39:10.680Z,96232.16
2022-10-17T22:41:38.655Z,96228.72
2022-10-17T22:44:06.982Z,96220.22
2022-10-17T22:46:36.464Z,96214.38
2022-10-17T22:49:05.084Z,96217.03
2022-10-17T22:51:33.367Z,96220.34
2022-10-17T22:54:01.354Z,96217.41
2022-10-17T22:56:29.359Z,96216.94
2022-10-17T22:58:57.378Z,96220.13
2022-10-17T23:01:26.836Z,96220.13
2022-10-17T23:03:56.358Z,96224.28
2022-10-17T23:06:24.633Z,96225.72
2022-10-17T23:08:52.725Z,96229.66
2022-10-17T23:11:21.314Z,96231.09
2022-10-17T23:13:49.384Z,96226.00
2022-10-17T23:16:17.400Z,96223.06
2022-10-17T23:18:45.364Z,96223.84
2022-10-17T23:21:14.752Z,96217.31
2022-10-17T23:23:42.729Z,96220.53
2022-10-17T23:26:12.424Z,96228.53
2022-10-17T23:28:41.096Z,96229.56
2022-10-17T23:31:14.051Z,96225.66
2022-10-17T23:33:42.415Z,96231.75
2022-10-17T23:36:11.347Z,96228.53
2022-10-17T23:38:41.455Z,96226.47
2022-10-17T23:41:09.951Z,96220.06
2022-10-17T23:43:38.779Z,96220.97
2022-10-17T23:46:07.861Z,96227.06
2022-10-17T23:48:35.978Z,96233.13
2022-10-17T23:51:04.533Z,96232.69
2022-10-17T23:53:32.653Z,96223.75
2022-10-17T23:56:02.027Z,96236.25
2022-10-17T23:58:30.296Z,96242.56
